Terminal Aerodrome Forecast
Issued by NWS

Home | Current Version | Previous Version | Text Only | Print | Product List | Glossary On
Versions: 1 2 3 4 5 6 7 8 9 10 11 12 13 14 15 16 17 18
000
FTUS42 TJSJ 010550
TAFISX
TAF
TISX 010550Z 0106/0206 08009KT P6SM VCSH SCT025 BKN030 OVC070
     FM011300 10018G26KT P6SM VCSH SCT025 SCT035 SCT080
     FM012230 08010KT P6SM FEW025 SCT050=

USA.gov is the U.S. government's official web portal to all federal, state and local government web resources and services.